sensor_id;sensor_type;location;lat;lon;timestamp;P1;durP1;ratioP1;P2;durP2;ratioP2
35298;SDS011;21415;48.054;16.646;2023-02-01T00:02:08;1.75;;;0.75;;
35298;SDS011;21415;48.054;16.646;2023-02-01T00:04:34;1.23;;;0.60;;
35298;SDS011;21415;48.054;16.646;2023-02-01T00:07:00;0.80;;;0.57;;
35298;SDS011;21415;48.054;16.646;2023-02-01T00:09:26;0.80;;;0.55;;
35298;SDS011;21415;48.054;16.646;2023-02-01T00:11:52;1.10;;;0.50;;
35298;SDS011;21415;48.054;16.646;2023-02-01T00:14:17;0.93;;;0.50;;
35298;SDS011;21415;48.054;16.646;2023-02-01T00:16:43;2.00;;;0.45;;
35298;SDS011;21415;48.054;16.646;2023-02-01T00:19:11;0.77;;;0.60;;
35298;SDS011;21415;48.054;16.646;2023-02-01T00:21:39;0.60;;;0.40;;
35298;SDS011;21415;48.054;16.646;2023-02-01T00:24:05;0.73;;;0.50;;
35298;SDS011;21415;48.054;16.646;2023-02-01T00:26:35;0.80;;;0.40;;
35298;SDS011;21415;48.054;16.646;2023-02-01T00:29:04;0.63;;;0.45;;
35298;SDS011;21415;48.054;16.646;2023-02-01T00:31:31;0.75;;;0.40;;
35298;SDS011;21415;48.054;16.646;2023-02-01T00:33:57;1.00;;;0.60;;
35298;SDS011;21415;48.054;16.646;2023-02-01T00:36:23;1.33;;;0.60;;
35298;SDS011;21415;48.054;16.646;2023-02-01T00:38:49;0.73;;;0.50;;
35298;SDS011;21415;48.054;16.646;2023-02-01T00:41:16;1.08;;;0.77;;
35298;SDS011;21415;48.054;16.646;2023-02-01T00:43:44;0.75;;;0.60;;
35298;SDS011;21415;48.054;16.646;2023-02-01T00:46:11;2.30;;;0.68;;
35298;SDS011;21415;48.054;16.646;2023-02-01T00:48:38;1.23;;;0.45;;
35298;SDS011;21415;48.054;16.646;2023-02-01T00:53:32;1.15;;;0.55;;
35298;SDS011;21415;48.054;16.646;2023-02-01T00:55:58;1.35;;;0.47;;
35298;SDS011;21415;48.054;16.646;2023-02-01T00:58:24;0.80;;;0.47;;
35298;SDS011;21415;48.054;16.646;2023-02-01T01:03:30;0.90;;;0.60;;
35298;SDS011;21415;48.054;16.646;2023-02-01T01:05:58;0.80;;;0.47;;
35298;SDS011;21415;48.054;16.646;2023-02-01T01:08:25;1.30;;;0.73;;
35298;SDS011;21415;48.054;16.646;2023-02-01T01:10:51;1.83;;;0.70;;
35298;SDS011;21415;48.054;16.646;2023-02-01T01:13:16;0.70;;;0.55;;
35298;SDS011;21415;48.054;16.646;2023-02-01T01:15:42;1.55;;;0.98;;
35298;SDS011;21415;48.054;16.646;2023-02-01T01:18:08;1.02;;;0.70;;
35298;SDS011;21415;48.054;16.646;2023-02-01T01:20:35;1.92;;;0.70;;
35298;SDS011;21415;48.054;16.646;2023-02-01T01:23:03;1.27;;;0.82;;
35298;SDS011;21415;48.054;16.646;2023-02-01T01:30:20;1.17;;;0.90;;
35298;SDS011;21415;48.054;16.646;2023-02-01T01:32:46;0.85;;;0.65;;
35298;SDS011;21415;48.054;16.646;2023-02-01T01:35:12;2.17;;;0.60;;
35298;SDS011;21415;48.054;16.646;2023-02-01T01:37:38;1.67;;;0.95;;
35298;SDS011;21415;48.054;16.646;2023-02-01T01:40:04;1.73;;;0.73;;
35298;SDS011;21415;48.054;16.646;2023-02-01T01:42:30;1.35;;;0.85;;
35298;SDS011;21415;48.054;16.646;2023-02-01T01:45:04;0.82;;;0.50;;
35298;SDS011;21415;48.054;16.646;2023-02-01T01:47:40;1.10;;;0.50;;
35298;SDS011;21415;48.054;16.646;2023-02-01T01:50:10;0.68;;;0.47;;
35298;SDS011;21415;48.054;16.646;2023-02-01T01:52:39;0.88;;;0.60;;
35298;SDS011;21415;48.054;16.646;2023-02-01T01:55:07;2.10;;;0.70;;
35298;SDS011;21415;48.054;16.646;2023-02-01T01:57:38;0.98;;;0.73;;
35298;SDS011;21415;48.054;16.646;2023-02-01T02:00:11;1.00;;;0.70;;
35298;SDS011;21415;48.054;16.646;2023-02-01T02:02:39;1.60;;;0.85;;
35298;SDS011;21415;48.054;16.646;2023-02-01T02:05:07;1.10;;;0.80;;
35298;SDS011;21415;48.054;16.646;2023-02-01T02:07:35;2.22;;;1.30;;
35298;SDS011;21415;48.054;16.646;2023-02-01T02:10:05;1.40;;;1.00;;
35298;SDS011;21415;48.054;16.646;2023-02-01T02:12:37;1.73;;;0.90;;
35298;SDS011;21415;48.054;16.646;2023-02-01T02:15:06;1.90;;;1.05;;
35298;SDS011;21415;48.054;16.646;2023-02-01T02:17:43;1.20;;;0.75;;
35298;SDS011;21415;48.054;16.646;2023-02-01T02:31:58;1.75;;;0.85;;
35298;SDS011;21415;48.054;16.646;2023-02-01T02:34:55;1.00;;;0.60;;
35298;SDS011;21415;48.054;16.646;2023-02-01T02:37:42;1.35;;;0.85;;
35298;SDS011;21415;48.054;16.646;2023-02-01T02:40:23;2.95;;;0.70;;
35298;SDS011;21415;48.054;16.646;2023-02-01T02:49:01;0.90;;;0.60;;
35298;SDS011;21415;48.054;16.646;2023-02-01T02:54:28;0.95;;;0.55;;
35298;SDS011;21415;48.054;16.646;2023-02-01T02:57:25;0.98;;;0.63;;
35298;SDS011;21415;48.054;16.646;2023-02-01T03:00:17;1.48;;;0.68;;
35298;SDS011;21415;48.054;16.646;2023-02-01T03:03:05;0.75;;;0.60;;
35298;SDS011;21415;48.054;16.646;2023-02-01T03:05:50;1.67;;;0.73;;
35298;SDS011;21415;48.054;16.646;2023-02-01T03:08:18;1.63;;;1.00;;
35298;SDS011;21415;48.054;16.646;2023-02-01T03:11:06;0.88;;;0.50;;
35298;SDS011;21415;48.054;16.646;2023-02-01T03:13:45;1.00;;;0.70;;
35298;SDS011;21415;48.054;16.646;2023-02-01T03:16:19;1.27;;;0.88;;
35298;SDS011;21415;48.054;16.646;2023-02-01T03:19:00;2.05;;;0.90;;
35298;SDS011;21415;48.054;16.646;2023-02-01T03:21:48;0.93;;;0.60;;
35298;SDS011;21415;48.054;16.646;2023-02-01T03:24:26;0.98;;;0.40;;
35298;SDS011;21415;48.054;16.646;2023-02-01T03:27:13;1.77;;;0.73;;
35298;SDS011;21415;48.054;16.646;2023-02-01T03:32:14;1.30;;;0.73;;
35298;SDS011;21415;48.054;16.646;2023-02-01T03:34:40;1.00;;;0.68;;
35298;SDS011;21415;48.054;16.646;2023-02-01T03:37:08;1.25;;;0.70;;
35298;SDS011;21415;48.054;16.646;2023-02-01T03:39:43;1.00;;;0.80;;
35298;SDS011;21415;48.054;16.646;2023-02-01T03:42:25;1.48;;;0.90;;
35298;SDS011;21415;48.054;16.646;2023-02-01T03:47:26;1.20;;;0.80;;
35298;SDS011;21415;48.054;16.646;2023-02-01T03:49:57;1.27;;;0.63;;
35298;SDS011;21415;48.054;16.646;2023-02-01T03:52:28;0.98;;;0.70;;
35298;SDS011;21415;48.054;16.646;2023-02-01T03:55:02;2.00;;;1.00;;
35298;SDS011;21415;48.054;16.646;2023-02-01T03:57:31;1.55;;;0.95;;
35298;SDS011;21415;48.054;16.646;2023-02-01T04:00:08;1.17;;;1.00;;
35298;SDS011;21415;48.054;16.646;2023-02-01T04:02:40;3.08;;;1.23;;
35298;SDS011;21415;48.054;16.646;2023-02-01T04:05:06;1.13;;;0.65;;
35298;SDS011;21415;48.054;16.646;2023-02-01T04:07:32;2.15;;;1.05;;
35298;SDS011;21415;48.054;16.646;2023-02-01T04:09:58;3.73;;;1.07;;
35298;SDS011;21415;48.054;16.646;2023-02-01T04:12:23;1.65;;;0.80;;
35298;SDS011;21415;48.054;16.646;2023-02-01T04:14:49;1.65;;;0.70;;
35298;SDS011;21415;48.054;16.646;2023-02-01T04:17:15;1.20;;;1.00;;
35298;SDS011;21415;48.054;16.646;2023-02-01T04:19:41;1.88;;;1.48;;
35298;SDS011;21415;48.054;16.646;2023-02-01T04:22:06;2.03;;;1.07;;
35298;SDS011;21415;48.054;16.646;2023-02-01T04:24:33;1.63;;;1.00;;
35298;SDS011;21415;48.054;16.646;2023-02-01T04:26:58;2.55;;;1.27;;
35298;SDS011;21415;48.054;16.646;2023-02-01T04:29:24;2.75;;;1.23;;
35298;SDS011;21415;48.054;16.646;2023-02-01T04:31:50;3.07;;;1.40;;
35298;SDS011;21415;48.054;16.646;2023-02-01T04:34:16;1.67;;;1.17;;
35298;SDS011;21415;48.054;16.646;2023-02-01T04:36:41;2.58;;;1.00;;
35298;SDS011;21415;48.054;16.646;2023-02-01T04:39:08;2.23;;;1.10;;
35298;SDS011;21415;48.054;16.646;2023-02-01T04:41:34;2.03;;;1.17;;
35298;SDS011;21415;48.054;16.646;2023-02-01T04:44:00;1.88;;;1.25;;
35298;SDS011;21415;48.054;16.646;2023-02-01T04:46:26;1.77;;;1.13;;
35298;SDS011;21415;48.054;16.646;2023-02-01T04:48:52;2.97;;;1.40;;
35298;SDS011;21415;48.054;16.646;2023-02-01T04:51:18;1.48;;;1.00;;
35298;SDS011;21415;48.054;16.646;2023-02-01T04:53:44;1.42;;;1.00;;
35298;SDS011;21415;48.054;16.646;2023-02-01T04:56:10;2.22;;;1.58;;
35298;SDS011;21415;48.054;16.646;2023-02-01T04:58:36;3.03;;;1.50;;
35298;SDS011;21415;48.054;16.646;2023-02-01T05:01:02;3.17;;;1.33;;
35298;SDS011;21415;48.054;16.646;2023-02-01T05:03:32;1.83;;;1.20;;
35298;SDS011;21415;48.054;16.646;2023-02-01T05:05:58;3.75;;;1.13;;
35298;SDS011;21415;48.054;16.646;2023-02-01T05:10:52;2.38;;;1.55;;
35298;SDS011;21415;48.054;16.646;2023-02-01T05:13:18;1.77;;;1.33;;
35298;SDS011;21415;48.054;16.646;2023-02-01T05:16:02;1.95;;;1.42;;
35298;SDS011;21415;48.054;16.646;2023-02-01T05:18:29;1.50;;;0.95;;
35298;SDS011;21415;48.054;16.646;2023-02-01T05:20:55;1.30;;;1.10;;
35298;SDS011;21415;48.054;16.646;2023-02-01T05:23:21;2.22;;;1.20;;
35298;SDS011;21415;48.054;16.646;2023-02-01T05:25:47;1.55;;;0.98;;
35298;SDS011;21415;48.054;16.646;2023-02-01T05:28:12;2.08;;;0.98;;
35298;SDS011;21415;48.054;16.646;2023-02-01T05:30:38;1.40;;;0.90;;
35298;SDS011;21415;48.054;16.646;2023-02-01T05:33:04;2.38;;;1.10;;
35298;SDS011;21415;48.054;16.646;2023-02-01T05:35:30;1.67;;;1.10;;
35298;SDS011;21415;48.054;16.646;2023-02-01T05:37:55;1.38;;;1.05;;
35298;SDS011;21415;48.054;16.646;2023-02-01T05:40:21;2.33;;;1.05;;
35298;SDS011;21415;48.054;16.646;2023-02-01T05:42:47;2.10;;;1.05;;
35298;SDS011;21415;48.054;16.646;2023-02-01T05:45:13;2.35;;;1.30;;
35298;SDS011;21415;48.054;16.646;2023-02-01T05:47:39;2.75;;;1.50;;
35298;SDS011;21415;48.054;16.646;2023-02-01T05:50:05;2.20;;;1.40;;
35298;SDS011;21415;48.054;16.646;2023-02-01T05:54:57;1.83;;;1.33;;
35298;SDS011;21415;48.054;16.646;2023-02-01T05:57:23;2.90;;;1.25;;
35298;SDS011;21415;48.054;16.646;2023-02-01T05:59:49;2.00;;;1.20;;
35298;SDS011;21415;48.054;16.646;2023-02-01T06:02:15;1.95;;;1.27;;
35298;SDS011;21415;48.054;16.646;2023-02-01T06:04:41;1.92;;;1.35;;
35298;SDS011;21415;48.054;16.646;2023-02-01T06:07:08;1.70;;;1.23;;
35298;SDS011;21415;48.054;16.646;2023-02-01T06:09:35;2.72;;;1.60;;
35298;SDS011;21415;48.054;16.646;2023-02-01T06:12:01;1.85;;;1.10;;
35298;SDS011;21415;48.054;16.646;2023-02-01T06:14:28;1.42;;;1.10;;
35298;SDS011;21415;48.054;16.646;2023-02-01T06:16:54;1.50;;;1.23;;
35298;SDS011;21415;48.054;16.646;2023-02-01T06:19:20;1.77;;;1.13;;
35298;SDS011;21415;48.054;16.646;2023-02-01T06:26:38;1.88;;;1.30;;
35298;SDS011;21415;48.054;16.646;2023-02-01T06:29:05;1.88;;;1.10;;
35298;SDS011;21415;48.054;16.646;2023-02-01T06:31:32;1.40;;;1.00;;
35298;SDS011;21415;48.054;16.646;2023-02-01T06:33:58;1.48;;;1.10;;
35298;SDS011;21415;48.054;16.646;2023-02-01T06:36:24;5.35;;;1.25;;
35298;SDS011;21415;48.054;16.646;2023-02-01T06:38:50;2.38;;;1.50;;
35298;SDS011;21415;48.054;16.646;2023-02-01T06:41:16;4.50;;;1.52;;
35298;SDS011;21415;48.054;16.646;2023-02-01T06:43:42;1.88;;;1.60;;
35298;SDS011;21415;48.054;16.646;2023-02-01T06:46:09;2.40;;;1.52;;
35298;SDS011;21415;48.054;16.646;2023-02-01T06:48:37;2.15;;;1.63;;
35298;SDS011;21415;48.054;16.646;2023-02-01T06:51:03;2.22;;;1.45;;
35298;SDS011;21415;48.054;16.646;2023-02-01T06:53:29;2.50;;;1.45;;
35298;SDS011;21415;48.054;16.646;2023-02-01T06:55:56;3.05;;;1.50;;
35298;SDS011;21415;48.054;16.646;2023-02-01T06:58:24;2.10;;;1.40;;
35298;SDS011;21415;48.054;16.646;2023-02-01T07:00:52;3.58;;;1.50;;
35298;SDS011;21415;48.054;16.646;2023-02-01T07:03:18;2.35;;;1.48;;
35298;SDS011;21415;48.054;16.646;2023-02-01T07:05:45;1.80;;;1.50;;
35298;SDS011;21415;48.054;16.646;2023-02-01T07:08:10;2.20;;;1.52;;
35298;SDS011;21415;48.054;16.646;2023-02-01T07:10:36;2.65;;;1.40;;
35298;SDS011;21415;48.054;16.646;2023-02-01T07:13:03;2.05;;;1.30;;
35298;SDS011;21415;48.054;16.646;2023-02-01T07:15:28;1.70;;;1.15;;
35298;SDS011;21415;48.054;16.646;2023-02-01T07:17:54;1.70;;;1.33;;
35298;SDS011;21415;48.054;16.646;2023-02-01T07:20:20;1.77;;;1.30;;
35298;SDS011;21415;48.054;16.646;2023-02-01T07:22:46;1.58;;;1.30;;
35298;SDS011;21415;48.054;16.646;2023-02-01T07:25:12;1.80;;;1.05;;
35298;SDS011;21415;48.054;16.646;2023-02-01T07:27:38;2.00;;;1.08;;
35298;SDS011;21415;48.054;16.646;2023-02-01T07:30:04;1.90;;;1.27;;
35298;SDS011;21415;48.054;16.646;2023-02-01T07:32:31;1.52;;;0.98;;
35298;SDS011;21415;48.054;16.646;2023-02-01T07:34:57;2.60;;;1.10;;
35298;SDS011;21415;48.054;16.646;2023-02-01T07:39:49;1.00;;;0.70;;
35298;SDS011;21415;48.054;16.646;2023-02-01T07:42:16;1.52;;;1.10;;
35298;SDS011;21415;48.054;16.646;2023-02-01T07:44:42;2.25;;;1.25;;
35298;SDS011;21415;48.054;16.646;2023-02-01T07:47:08;1.92;;;1.30;;
35298;SDS011;21415;48.054;16.646;2023-02-01T07:49:34;1.45;;;1.10;;
35298;SDS011;21415;48.054;16.646;2023-02-01T07:52:00;1.98;;;1.02;;
35298;SDS011;21415;48.054;16.646;2023-02-01T07:54:26;1.65;;;1.15;;
35298;SDS011;21415;48.054;16.646;2023-02-01T07:56:54;4.97;;;1.40;;
35298;SDS011;21415;48.054;16.646;2023-02-01T07:59:21;1.60;;;1.08;;
35298;SDS011;21415;48.054;16.646;2023-02-01T08:01:46;2.47;;;1.20;;
35298;SDS011;21415;48.054;16.646;2023-02-01T08:04:12;3.83;;;1.00;;
35298;SDS011;21415;48.054;16.646;2023-02-01T08:06:39;2.53;;;1.50;;
35298;SDS011;21415;48.054;16.646;2023-02-01T08:09:05;1.70;;;1.30;;
35298;SDS011;21415;48.054;16.646;2023-02-01T08:11:35;1.80;;;1.27;;
35298;SDS011;21415;48.054;16.646;2023-02-01T08:14:03;1.92;;;1.27;;
35298;SDS011;21415;48.054;16.646;2023-02-01T08:16:30;1.88;;;1.00;;
35298;SDS011;21415;48.054;16.646;2023-02-01T08:18:56;1.90;;;1.50;;
35298;SDS011;21415;48.054;16.646;2023-02-01T08:21:23;2.33;;;1.42;;
35298;SDS011;21415;48.054;16.646;2023-02-01T08:23:50;2.55;;;1.67;;
35298;SDS011;21415;48.054;16.646;2023-02-01T08:26:21;2.05;;;1.40;;
35298;SDS011;21415;48.054;16.646;2023-02-01T08:28:50;2.22;;;1.63;;
35298;SDS011;21415;48.054;16.646;2023-02-01T08:31:19;3.13;;;1.67;;
35298;SDS011;21415;48.054;16.646;2023-02-01T08:33:57;1.85;;;1.50;;
35298;SDS011;21415;48.054;16.646;2023-02-01T08:36:24;3.33;;;1.50;;
35298;SDS011;21415;48.054;16.646;2023-02-01T08:38:51;1.65;;;1.10;;
35298;SDS011;21415;48.054;16.646;2023-02-01T08:41:18;2.58;;;1.60;;
35298;SDS011;21415;48.054;16.646;2023-02-01T08:43:47;2.03;;;1.25;;
35298;SDS011;21415;48.054;16.646;2023-02-01T08:46:13;1.38;;;0.93;;
35298;SDS011;21415;48.054;16.646;2023-02-01T08:48:39;1.73;;;1.30;;
35298;SDS011;21415;48.054;16.646;2023-02-01T08:51:06;1.23;;;1.02;;
35298;SDS011;21415;48.054;16.646;2023-02-01T08:53:33;2.47;;;1.40;;
35298;SDS011;21415;48.054;16.646;2023-02-01T08:56:00;1.40;;;1.20;;
35298;SDS011;21415;48.054;16.646;2023-02-01T09:00:51;1.58;;;0.93;;
35298;SDS011;21415;48.054;16.646;2023-02-01T09:03:17;3.33;;;1.15;;
35298;SDS011;21415;48.054;16.646;2023-02-01T09:05:44;4.30;;;1.20;;
35298;SDS011;21415;48.054;16.646;2023-02-01T09:08:10;1.50;;;1.17;;
35298;SDS011;21415;48.054;16.646;2023-02-01T09:10:40;22.27;;;13.73;;
35298;SDS011;21415;48.054;16.646;2023-02-01T09:13:07;4.65;;;3.42;;
35298;SDS011;21415;48.054;16.646;2023-02-01T09:15:36;3.03;;;2.30;;
35298;SDS011;21415;48.054;16.646;2023-02-01T09:18:04;6.43;;;1.63;;
35298;SDS011;21415;48.054;16.646;2023-02-01T09:20:30;4.65;;;1.70;;
35298;SDS011;21415;48.054;16.646;2023-02-01T09:22:56;1.85;;;1.48;;
35298;SDS011;21415;48.054;16.646;2023-02-01T09:25:22;2.47;;;1.48;;
35298;SDS011;21415;48.054;16.646;2023-02-01T09:27:48;2.42;;;1.27;;
35298;SDS011;21415;48.054;16.646;2023-02-01T09:30:14;2.05;;;1.33;;
35298;SDS011;21415;48.054;16.646;2023-02-01T09:32:40;2.15;;;1.20;;
35298;SDS011;21415;48.054;16.646;2023-02-01T09:35:06;2.85;;;1.30;;
35298;SDS011;21415;48.054;16.646;2023-02-01T09:37:41;1.45;;;0.90;;
35298;SDS011;21415;48.054;16.646;2023-02-01T09:40:14;1.83;;;1.00;;
35298;SDS011;21415;48.054;16.646;2023-02-01T09:45:59;2.37;;;1.30;;
35298;SDS011;21415;48.054;16.646;2023-02-01T09:48:41;3.03;;;1.33;;
35298;SDS011;21415;48.054;16.646;2023-02-01T09:51:14;2.20;;;1.13;;
35298;SDS011;21415;48.054;16.646;2023-02-01T09:53:48;1.50;;;1.10;;
35298;SDS011;21415;48.054;16.646;2023-02-01T09:56:24;1.73;;;1.00;;
35298;SDS011;21415;48.054;16.646;2023-02-01T09:59:01;4.97;;;1.03;;
35298;SDS011;21415;48.054;16.646;2023-02-01T10:01:54;1.60;;;0.88;;
35298;SDS011;21415;48.054;16.646;2023-02-01T10:04:21;1.83;;;0.88;;
35298;SDS011;21415;48.054;16.646;2023-02-01T10:09:26;2.13;;;0.70;;
35298;SDS011;21415;48.054;16.646;2023-02-01T10:12:15;0.82;;;0.60;;
35298;SDS011;21415;48.054;16.646;2023-02-01T10:18:12;0.90;;;0.50;;
35298;SDS011;21415;48.054;16.646;2023-02-01T10:26:24;1.42;;;0.70;;
35298;SDS011;21415;48.054;16.646;2023-02-01T10:28:58;0.60;;;0.47;;
35298;SDS011;21415;48.054;16.646;2023-02-01T10:31:35;1.33;;;0.80;;
35298;SDS011;21415;48.054;16.646;2023-02-01T10:34:46;3.40;;;1.70;;
35298;SDS011;21415;48.054;16.646;2023-02-01T10:37:00;2.30;;;1.50;;
35298;SDS011;21415;48.054;16.646;2023-02-01T10:39:37;1.30;;;0.60;;
35298;SDS011;21415;48.054;16.646;2023-02-01T10:42:11;1.83;;;0.80;;
35298;SDS011;21415;48.054;16.646;2023-02-01T10:44:40;2.00;;;0.77;;
35298;SDS011;21415;48.054;16.646;2023-02-01T10:47:10;1.38;;;0.63;;
35298;SDS011;21415;48.054;16.646;2023-02-01T10:52:43;1.42;;;0.68;;
35298;SDS011;21415;48.054;16.646;2023-02-01T10:55:26;1.05;;;0.73;;
35298;SDS011;21415;48.054;16.646;2023-02-01T10:58:10;1.50;;;0.73;;
35298;SDS011;21415;48.054;16.646;2023-02-01T11:00:48;1.35;;;0.95;;
35298;SDS011;21415;48.054;16.646;2023-02-01T11:06:37;1.67;;;0.80;;
35298;SDS011;21415;48.054;16.646;2023-02-01T11:20:00;1.80;;;0.77;;
35298;SDS011;21415;48.054;16.646;2023-02-01T11:22:32;1.20;;;0.85;;
35298;SDS011;21415;48.054;16.646;2023-02-01T11:25:01;2.03;;;1.10;;
35298;SDS011;21415;48.054;16.646;2023-02-01T11:27:37;1.90;;;0.90;;
35298;SDS011;21415;48.054;16.646;2023-02-01T11:30:06;2.90;;;1.20;;
35298;SDS011;21415;48.054;16.646;2023-02-01T11:32:40;1.63;;;1.15;;
35298;SDS011;21415;48.054;16.646;2023-02-01T11:35:06;4.28;;;0.93;;
35298;SDS011;21415;48.054;16.646;2023-02-01T11:37:58;1.63;;;0.90;;
35298;SDS011;21415;48.054;16.646;2023-02-01T11:40:34;1.65;;;1.05;;
35298;SDS011;21415;48.054;16.646;2023-02-01T11:43:12;1.42;;;1.00;;
35298;SDS011;21415;48.054;16.646;2023-02-01T11:46:08;2.13;;;0.90;;
35298;SDS011;21415;48.054;16.646;2023-02-01T11:49:21;2.45;;;1.30;;
35298;SDS011;21415;48.054;16.646;2023-02-01T11:52:03;3.42;;;1.73;;
35298;SDS011;21415;48.054;16.646;2023-02-01T11:54:40;4.68;;;2.13;;
35298;SDS011;21415;48.054;16.646;2023-02-01T12:08:06;2.33;;;1.27;;
35298;SDS011;21415;48.054;16.646;2023-02-01T12:13:53;2.42;;;1.40;;
35298;SDS011;21415;48.054;16.646;2023-02-01T12:19:53;4.80;;;1.20;;
35298;SDS011;21415;48.054;16.646;2023-02-01T12:22:35;1.50;;;0.98;;
35298;SDS011;21415;48.054;16.646;2023-02-01T12:41:53;2.05;;;1.40;;
35298;SDS011;21415;48.054;16.646;2023-02-01T12:44:27;2.25;;;1.48;;
35298;SDS011;21415;48.054;16.646;2023-02-01T12:47:19;3.25;;;1.60;;
35298;SDS011;21415;48.054;16.646;2023-02-01T12:52:49;2.95;;;1.00;;
35298;SDS011;21415;48.054;16.646;2023-02-01T12:55:38;1.77;;;1.20;;
35298;SDS011;21415;48.054;16.646;2023-02-01T12:58:17;3.47;;;1.20;;
35298;SDS011;21415;48.054;16.646;2023-02-01T13:01:06;2.78;;;1.40;;
35298;SDS011;21415;48.054;16.646;2023-02-01T13:06:38;1.33;;;0.80;;
35298;SDS011;21415;48.054;16.646;2023-02-01T13:12:26;1.50;;;1.02;;
35298;SDS011;21415;48.054;16.646;2023-02-01T13:15:00;1.08;;;0.60;;
35298;SDS011;21415;48.054;16.646;2023-02-01T13:26:00;1.25;;;0.50;;
35298;SDS011;21415;48.054;16.646;2023-02-01T13:28:49;1.15;;;0.60;;
35298;SDS011;21415;48.054;16.646;2023-02-01T13:32:03;0.70;;;0.40;;
35298;SDS011;21415;48.054;16.646;2023-02-01T13:45:57;1.02;;;0.50;;
35298;SDS011;21415;48.054;16.646;2023-02-01T13:48:54;1.33;;;0.80;;
35298;SDS011;21415;48.054;16.646;2023-02-01T13:51:34;1.27;;;0.80;;
35298;SDS011;21415;48.054;16.646;2023-02-01T13:57:42;0.80;;;0.45;;
35298;SDS011;21415;48.054;16.646;2023-02-01T14:00:44;1.58;;;0.70;;
35298;SDS011;21415;48.054;16.646;2023-02-01T14:03:49;1.58;;;0.30;;
35298;SDS011;21415;48.054;16.646;2023-02-01T14:06:35;1.50;;;0.60;;
35298;SDS011;21415;48.054;16.646;2023-02-01T14:09:15;2.22;;;0.70;;
35298;SDS011;21415;48.054;16.646;2023-02-01T14:12:41;0.80;;;0.32;;
35298;SDS011;21415;48.054;16.646;2023-02-01T14:15:16;1.08;;;0.32;;
35298;SDS011;21415;48.054;16.646;2023-02-01T14:17:48;2.10;;;0.60;;
35298;SDS011;21415;48.054;16.646;2023-02-01T14:23:15;0.93;;;0.47;;
35298;SDS011;21415;48.054;16.646;2023-02-01T14:26:01;1.08;;;0.50;;
35298;SDS011;21415;48.054;16.646;2023-02-01T14:28:40;1.73;;;0.68;;
35298;SDS011;21415;48.054;16.646;2023-02-01T14:31:32;2.60;;;0.63;;
35298;SDS011;21415;48.054;16.646;2023-02-01T14:33:59;0.88;;;0.50;;
35298;SDS011;21415;48.054;16.646;2023-02-01T14:36:40;1.13;;;0.68;;
35298;SDS011;21415;48.054;16.646;2023-02-01T14:39:26;2.55;;;0.75;;
35298;SDS011;21415;48.054;16.646;2023-02-01T14:42:14;2.83;;;2.25;;
35298;SDS011;21415;48.054;16.646;2023-02-01T14:51:24;1.60;;;0.50;;
35298;SDS011;21415;48.054;16.646;2023-02-01T15:01:17;1.08;;;0.40;;
35298;SDS011;21415;48.054;16.646;2023-02-01T15:04:19;1.02;;;0.40;;
35298;SDS011;21415;48.054;16.646;2023-02-01T15:06:58;0.93;;;0.43;;
35298;SDS011;21415;48.054;16.646;2023-02-01T15:10:13;2.30;;;1.08;;
35298;SDS011;21415;48.054;16.646;2023-02-01T15:19:53;5.30;;;3.90;;
35298;SDS011;21415;48.054;16.646;2023-02-01T15:23:00;4.97;;;2.53;;
35298;SDS011;21415;48.054;16.646;2023-02-01T15:28:50;6.20;;;5.47;;
35298;SDS011;21415;48.054;16.646;2023-02-01T15:31:30;3.55;;;2.78;;
35298;SDS011;21415;48.054;16.646;2023-02-01T15:33:58;2.28;;;1.70;;
35298;SDS011;21415;48.054;16.646;2023-02-01T15:36:24;1.55;;;1.45;;
35298;SDS011;21415;48.054;16.646;2023-02-01T15:42:12;2.90;;;1.20;;
35298;SDS011;21415;48.054;16.646;2023-02-01T15:44:44;1.58;;;0.93;;
35298;SDS011;21415;48.054;16.646;2023-02-01T15:49:43;2.70;;;1.77;;
35298;SDS011;21415;48.054;16.646;2023-02-01T15:52:16;2.25;;;1.67;;
35298;SDS011;21415;48.054;16.646;2023-02-01T15:54:47;3.40;;;2.08;;
35298;SDS011;21415;48.054;16.646;2023-02-01T15:57:22;5.28;;;2.08;;
35298;SDS011;21415;48.054;16.646;2023-02-01T15:59:58;3.75;;;2.45;;
35298;SDS011;21415;48.054;16.646;2023-02-01T16:02:41;9.05;;;4.03;;
35298;SDS011;21415;48.054;16.646;2023-02-01T16:08:20;8.27;;;3.85;;
35298;SDS011;21415;48.054;16.646;2023-02-01T16:10:49;6.88;;;3.72;;
35298;SDS011;21415;48.054;16.646;2023-02-01T16:13:18;4.28;;;2.22;;
35298;SDS011;21415;48.054;16.646;2023-02-01T16:15:45;4.72;;;2.78;;
35298;SDS011;21415;48.054;16.646;2023-02-01T16:18:12;11.13;;;5.15;;
35298;SDS011;21415;48.054;16.646;2023-02-01T16:20:39;7.00;;;3.53;;
35298;SDS011;21415;48.054;16.646;2023-02-01T16:23:07;5.25;;;2.25;;
35298;SDS011;21415;48.054;16.646;2023-02-01T16:25:33;5.28;;;2.22;;
35298;SDS011;21415;48.054;16.646;2023-02-01T16:27:59;3.67;;;1.90;;
35298;SDS011;21415;48.054;16.646;2023-02-01T16:30:25;3.90;;;2.00;;
35298;SDS011;21415;48.054;16.646;2023-02-01T16:32:52;3.38;;;1.75;;
35298;SDS011;21415;48.054;16.646;2023-02-01T16:37:50;3.10;;;1.90;;
35298;SDS011;21415;48.054;16.646;2023-02-01T16:40:16;3.58;;;2.40;;
35298;SDS011;21415;48.054;16.646;2023-02-01T16:42:44;2.38;;;1.60;;
35298;SDS011;21415;48.054;16.646;2023-02-01T16:45:13;2.38;;;1.15;;
35298;SDS011;21415;48.054;16.646;2023-02-01T16:47:39;3.50;;;1.65;;
35298;SDS011;21415;48.054;16.646;2023-02-01T16:50:18;2.70;;;1.20;;
35298;SDS011;21415;48.054;16.646;2023-02-01T16:52:47;2.05;;;1.35;;
35298;SDS011;21415;48.054;16.646;2023-02-01T16:55:14;2.42;;;1.70;;
35298;SDS011;21415;48.054;16.646;2023-02-01T16:57:41;4.90;;;2.40;;
35298;SDS011;21415;48.054;16.646;2023-02-01T17:00:08;6.38;;;1.77;;
35298;SDS011;21415;48.054;16.646;2023-02-01T17:02:35;6.32;;;1.15;;
35298;SDS011;21415;48.054;16.646;2023-02-01T17:05:00;2.30;;;1.17;;
35298;SDS011;21415;48.054;16.646;2023-02-01T17:07:26;4.20;;;1.95;;
35298;SDS011;21415;48.054;16.646;2023-02-01T17:09:52;2.88;;;1.50;;
35298;SDS011;21415;48.054;16.646;2023-02-01T17:12:22;2.35;;;1.40;;
35298;SDS011;21415;48.054;16.646;2023-02-01T17:14:50;1.58;;;1.00;;
35298;SDS011;21415;48.054;16.646;2023-02-01T17:17:17;1.85;;;0.90;;
35298;SDS011;21415;48.054;16.646;2023-02-01T17:19:48;3.45;;;1.30;;
35298;SDS011;21415;48.054;16.646;2023-02-01T17:22:19;4.43;;;2.45;;
35298;SDS011;21415;48.054;16.646;2023-02-01T17:24:46;40.88;;;17.88;;
35298;SDS011;21415;48.054;16.646;2023-02-01T17:27:12;48.58;;;23.42;;
35298;SDS011;21415;48.054;16.646;2023-02-01T17:29:38;17.98;;;9.60;;
35298;SDS011;21415;48.054;16.646;2023-02-01T17:34:33;8.40;;;4.00;;
35298;SDS011;21415;48.054;16.646;2023-02-01T17:36:59;10.55;;;5.18;;
35298;SDS011;21415;48.054;16.646;2023-02-01T17:39:25;7.88;;;4.88;;
35298;SDS011;21415;48.054;16.646;2023-02-01T17:42:10;5.05;;;3.30;;
35298;SDS011;21415;48.054;16.646;2023-02-01T17:47:02;3.17;;;2.15;;
35298;SDS011;21415;48.054;16.646;2023-02-01T17:49:28;3.40;;;2.10;;
35298;SDS011;21415;48.054;16.646;2023-02-01T17:51:54;2.30;;;1.45;;
35298;SDS011;21415;48.054;16.646;2023-02-01T17:54:21;3.15;;;1.83;;
35298;SDS011;21415;48.054;16.646;2023-02-01T17:56:47;3.58;;;2.60;;
35298;SDS011;21415;48.054;16.646;2023-02-01T17:59:13;3.55;;;2.15;;
35298;SDS011;21415;48.054;16.646;2023-02-01T18:01:39;2.47;;;1.73;;
35298;SDS011;21415;48.054;16.646;2023-02-01T18:04:05;4.18;;;1.60;;
35298;SDS011;21415;48.054;16.646;2023-02-01T18:06:41;2.58;;;1.48;;
35298;SDS011;21415;48.054;16.646;2023-02-01T18:09:07;3.45;;;1.98;;
35298;SDS011;21415;48.054;16.646;2023-02-01T18:11:33;2.55;;;1.45;;